Time;durP1;ratioP1;P1;durP2;ratioP2;P2;SDS_P1;SDS_P2;PMS_P1;PMS_P2;Temp;Humidity;BMP_temperature;BMP_pressure;BME280_temperature;BME280_humidity;BME280_pressure;Samples;Min_cycle;Max_cycle;Signal;HPM_P1;HPM_P2
2022/10/24 00:02:23;;;;;;;6.40;1.30;;;;;;;21.38;46.81;97132.53;5059200;28;20273;-72
2022/10/24 00:04:49;;;;;;;9.73;1.90;;;;;;;21.33;46.94;97130.53;5059909;28;20753;-72
2022/10/24 00:07:14;;;;;;;4.43;1.30;;;;;;;21.39;46.85;97129.63;5065011;28;20597;-71
2022/10/24 00:09:40;;;;;;;7.87;1.60;;;;;;;21.36;47.06;97130.06;5051018;28;20279;-71
2022/10/24 00:12:06;;;;;;;4.70;1.20;;;;;;;21.36;47.01;97127.41;5057442;28;20218;-72
2022/10/24 00:14:32;;;;;;;3.63;1.20;;;;;;;21.37;46.85;97125.56;5037365;28;20194;-71
2022/10/24 00:16:57;;;;;;;4.00;1.13;;;;;;;21.31;47.15;97125.41;5056069;28;20328;-71
2022/10/24 00:19:23;;;;;;;8.80;1.50;;;;;;;21.25;47.05;97123.66;5066929;28;20519;-72
2022/10/24 00:21:48;;;;;;;8.40;1.97;;;;;;;21.21;47.37;97119.81;5057292;28;20190;-71
2022/10/24 00:24:14;;;;;;;4.40;1.53;;;;;;;21.25;47.30;97121.00;5065598;28;20199;-73
2022/10/24 00:26:39;;;;;;;6.10;1.47;;;;;;;21.25;47.57;97130.81;5069479;28;20813;-72
2022/10/24 00:29:05;;;;;;;5.00;1.37;;;;;;;21.23;47.30;97133.72;5067740;28;20182;-71
2022/10/24 00:31:30;;;;;;;7.43;1.67;;;;;;;21.22;47.54;97142.75;5055605;28;20285;-72
2022/10/24 00:33:56;;;;;;;5.97;1.70;;;;;;;21.23;47.62;97143.59;5068701;28;20665;-73
2022/10/24 00:36:22;;;;;;;5.57;1.20;;;;;;;21.23;47.50;97136.38;5064082;28;20217;-71
2022/10/24 00:38:49;;;;;;;11.70;1.30;;;;;;;21.21;47.37;97143.78;5068430;28;20597;-72
2022/10/24 00:41:23;;;;;;;6.80;1.63;;;;;;;21.20;47.64;97141.34;5063575;28;20966;-72
2022/10/24 00:43:49;;;;;;;5.93;1.40;;;;;;;21.15;47.82;97142.03;5053959;28;20421;-72
2022/10/24 00:46:16;;;;;;;4.57;1.60;;;;;;;21.10;47.63;97139.19;5063105;28;20432;-71
2022/10/24 00:48:48;;;;;;;7.27;1.63;;;;;;;21.13;47.63;97130.78;5062847;28;20189;-72
2022/10/24 00:51:26;;;;;;;7.23;1.70;;;;;;;21.09;47.91;97138.41;5062738;28;20460;-72
2022/10/24 00:54:02;;;;;;;14.10;1.60;;;;;;;21.09;47.69;97141.06;5059611;28;20416;-71
2022/10/24 00:56:30;;;;;;;4.23;1.60;;;;;;;21.04;47.81;97146.22;5061996;28;20420;-71
2022/10/24 00:58:57;;;;;;;8.03;1.80;;;;;;;21.04;47.86;97142.75;5060178;28;20997;-71
2022/10/24 01:01:26;;;;;;;6.40;1.47;;;;;;;21.07;47.77;97135.13;5068399;28;20444;-70
2022/10/24 01:03:51;;;;;;;11.03;1.60;;;;;;;21.01;47.90;97142.16;5061684;28;20460;-71
2022/10/24 01:06:54;;;;;;;4.30;1.60;;;;;;;21.01;48.01;97141.34;5069701;28;20488;-71
2022/10/24 01:09:22;;;;;;;3.40;1.20;;;;;;;21.00;47.87;97148.53;5063618;28;20183;-71
2022/10/24 01:11:59;;;;;;;5.20;1.53;;;;;;;21.00;47.76;97153.03;5070876;28;20939;-71
2022/10/24 01:14:46;;;;;;;6.13;1.43;;;;;;;20.96;48.15;97150.00;5064779;28;20439;-70
2022/10/24 01:17:35;;;;;;;7.83;1.57;;;;;;;20.96;48.42;97147.31;5060990;28;20413;-71
2022/10/24 01:20:03;;;;;;;11.90;1.77;;;;;;;20.92;48.39;97154.13;5034336;28;20973;-71
2022/10/24 01:22:35;;;;;;;10.67;1.73;;;;;;;20.88;48.76;97152.94;5055390;28;20751;-72
2022/10/24 01:25:14;;;;;;;9.73;1.70;;;;;;;20.87;48.70;97156.66;5062731;28;20464;-72
2022/10/24 01:28:00;;;;;;;13.13;2.03;;;;;;;20.78;49.00;97150.78;5060382;28;20487;-73
2022/10/24 01:30:28;;;;;;;4.80;1.70;;;;;;;20.80;48.83;97151.38;5068398;28;20444;-72
2022/10/24 01:33:05;;;;;;;13.77;1.83;;;;;;;20.83;48.90;97155.44;5060547;28;20483;-71
2022/10/24 01:35:39;;;;;;;8.03;1.57;;;;;;;20.79;48.99;97149.75;5056330;28;20522;-72
2022/10/24 01:38:23;;;;;;;10.57;2.20;;;;;;;20.85;49.01;97150.72;5056744;28;20439;-72
2022/10/24 01:40:55;;;;;;;5.07;1.60;;;;;;;20.82;48.69;97143.16;5058115;28;20444;-71
2022/10/24 01:43:25;;;;;;;6.97;1.80;;;;;;;20.80;49.03;97134.56;5061665;28;20429;-72
2022/10/24 01:45:55;;;;;;;6.17;1.70;;;;;;;20.78;49.35;97149.97;5058260;28;20482;-72
2022/10/24 01:48:24;;;;;;;7.27;1.50;;;;;;;20.77;49.38;97151.00;5047407;28;20969;-72
2022/10/24 01:50:52;;;;;;;10.93;1.90;;;;;;;20.68;49.34;97153.91;5061767;28;20475;-71
2022/10/24 01:53:18;;;;;;;9.10;1.57;;;;;;;20.67;49.41;97160.25;5065401;28;20434;-71
2022/10/24 01:55:44;;;;;;;5.63;1.50;;;;;;;20.64;49.60;97146.56;5064226;28;20511;-71
2022/10/24 01:58:09;;;;;;;6.10;1.70;;;;;;;20.63;49.54;97142.28;5066063;28;20802;-71
2022/10/24 02:00:34;;;;;;;8.57;1.80;;;;;;;20.64;49.82;97142.06;5066604;28;20198;-71
2022/10/24 02:03:01;;;;;;;10.47;1.90;;;;;;;20.65;49.66;97143.72;5062255;28;20236;-71
2022/10/24 02:05:31;;;;;;;6.37;1.70;;;;;;;20.58;50.02;97153.59;5065094;28;20689;-71
2022/10/24 02:08:03;;;;;;;7.50;1.50;;;;;;;20.58;49.98;97153.59;5062316;28;20455;-71
2022/10/24 02:10:31;;;;;;;8.80;1.90;;;;;;;20.60;49.77;97156.06;5065938;28;20456;-71
2022/10/24 02:13:11;;;;;;;8.63;1.83;;;;;;;20.60;49.98;97162.16;5059180;28;20424;-71
2022/10/24 02:15:44;;;;;;;15.00;2.03;;;;;;;20.61;49.91;97165.63;5067619;28;20421;-71
2022/10/24 02:18:10;;;;;;;7.33;1.90;;;;;;;20.63;50.09;97158.25;5063530;28;20864;-71
2022/10/24 02:20:51;;;;;;;4.53;1.77;;;;;;;20.58;50.54;97150.13;5044947;28;20452;-71
2022/10/24 02:23:19;;;;;;;8.90;1.47;;;;;;;20.56;50.55;97151.16;5066013;28;20796;-70
2022/10/24 02:25:49;;;;;;;8.83;2.03;;;;;;;20.56;50.35;97147.66;5064829;28;20469;-71
2022/10/24 02:28:21;;;;;;;6.70;2.03;;;;;;;20.54;50.71;97141.75;5059080;28;20433;-73
2022/10/24 02:30:54;;;;;;;9.43;1.83;;;;;;;20.53;50.59;97140.94;5065522;28;20445;-72
2022/10/24 02:33:20;;;;;;;8.60;1.87;;;;;;;20.50;50.97;97136.03;5061340;28;20475;-72
2022/10/24 02:35:47;;;;;;;6.40;2.00;;;;;;;20.45;50.55;97132.41;5066594;28;20440;-71
2022/10/24 02:38:25;;;;;;;9.63;1.80;;;;;;;20.46;50.73;97118.06;5060495;28;20187;-71
2022/10/24 02:40:51;;;;;;;8.33;2.20;;;;;;;20.49;51.06;97117.63;5063041;28;20473;-71
2022/10/24 02:43:18;;;;;;;7.60;2.03;;;;;;;20.50;50.82;97119.25;5060795;28;20514;-71
2022/10/24 02:45:44;;;;;;;12.60;2.50;;;;;;;20.49;51.23;97107.78;5056416;28;20460;-72
2022/10/24 02:48:11;;;;;;;10.27;2.20;;;;;;;20.51;51.23;97103.06;5053696;28;20774;-71
2022/10/24 02:50:38;;;;;;;15.90;2.30;;;;;;;20.44;51.57;97115.63;5060533;28;20222;-71
2022/10/24 02:53:04;;;;;;;16.33;2.43;;;;;;;20.51;51.64;97118.25;5064309;28;20430;-72
2022/10/24 02:55:29;;;;;;;6.10;2.13;;;;;;;20.55;51.70;97114.91;5064513;28;20479;-72
2022/10/24 02:57:55;;;;;;;8.60;2.50;;;;;;;20.53;51.54;97111.66;5067713;28;20193;-72
2022/10/24 03:00:21;;;;;;;10.30;2.40;;;;;;;20.53;52.05;97129.47;5063951;28;20210;-71
2022/10/24 03:02:47;;;;;;;15.27;2.27;;;;;;;20.50;52.26;97116.59;5062884;28;20178;-72
2022/10/24 03:05:12;;;;;;;13.33;2.67;;;;;;;20.48;52.49;97116.00;5064029;28;20834;-72
2022/10/24 03:07:37;;;;;;;12.43;2.90;;;;;;;20.45;52.48;97117.25;5062982;28;20221;-72
2022/10/24 03:10:03;;;;;;;11.60;2.83;;;;;;;20.48;52.43;97122.13;5065714;28;20206;-71
2022/10/24 03:12:29;;;;;;;5.70;2.23;;;;;;;20.40;53.06;97128.56;5047906;28;20220;-71
2022/10/24 03:14:54;;;;;;;12.57;2.63;;;;;;;20.41;53.05;97137.34;5068707;28;20769;-72
2022/10/24 03:17:20;;;;;;;10.63;2.50;;;;;;;20.24;54.06;97132.56;5059808;28;20190;-72
2022/10/24 03:19:46;;;;;;;9.60;2.20;;;;;;;20.33;53.93;97122.47;5051714;28;20580;-72
2022/10/24 03:22:11;;;;;;;13.13;3.10;;;;;;;20.30;53.50;97135.38;5053764;28;20593;-72
2022/10/24 03:24:37;;;;;;;11.60;3.27;;;;;;;20.27;54.04;97131.31;5066322;28;20281;-72
2022/10/24 03:27:02;;;;;;;9.33;2.20;;;;;;;20.37;53.75;97138.81;5064020;28;20256;-71
2022/10/24 03:29:28;;;;;;;12.63;2.30;;;;;;;20.37;54.00;97144.13;5058539;28;20650;-72
2022/10/24 03:31:53;;;;;;;11.80;2.77;;;;;;;20.42;53.88;97145.09;5065665;28;20253;-71
2022/10/24 03:34:19;;;;;;;14.43;3.00;;;;;;;20.40;53.92;97147.19;5061519;28;20187;-73
2022/10/24 03:36:44;;;;;;;9.60;2.70;;;;;;;20.39;53.66;97142.91;5065722;28;20569;-74
2022/10/24 03:39:10;;;;;;;14.60;3.10;;;;;;;20.39;54.12;97134.91;5047374;28;20209;-72
2022/10/24 03:41:35;;;;;;;9.70;2.80;;;;;;;20.43;53.90;97129.97;5039632;28;20792;-72
2022/10/24 03:44:01;;;;;;;12.10;2.47;;;;;;;20.44;53.72;97128.94;5056696;28;20274;-72
2022/10/24 03:46:26;;;;;;;11.63;2.50;;;;;;;20.42;53.83;97129.13;5059834;28;20257;-72
2022/10/24 03:48:51;;;;;;;7.90;2.50;;;;;;;20.39;54.09;97115.47;5069701;28;20262;-73
2022/10/24 03:51:17;;;;;;;11.80;2.80;;;;;;;20.37;54.08;97122.84;5063072;28;20256;-72
2022/10/24 03:53:42;;;;;;;17.30;2.87;;;;;;;20.38;54.07;97122.63;5063789;28;20195;-72
2022/10/24 03:56:08;;;;;;;13.17;2.60;;;;;;;20.38;54.34;97127.97;5066640;28;20179;-72
2022/10/24 03:58:33;;;;;;;12.70;2.60;;;;;;;20.37;54.25;97120.19;5064512;28;20179;-72
2022/10/24 04:00:59;;;;;;;13.63;2.87;;;;;;;20.32;54.79;97126.16;5064377;28;20208;-72
2022/10/24 04:03:25;;;;;;;12.63;3.50;;;;;;;20.32;54.31;97123.50;5055688;28;20183;-72
2022/10/24 04:05:52;;;;;;;6.40;2.63;;;;;;;20.28;54.46;97124.97;5063958;28;20218;-72
2022/10/24 04:08:17;;;;;;;9.10;2.67;;;;;;;20.29;54.50;97134.56;5052362;28;21046;-73
2022/10/24 04:10:43;;;;;;;7.30;2.50;;;;;;;20.31;54.49;97145.81;5067078;28;20577;-72
2022/10/24 04:13:08;;;;;;;13.40;2.87;;;;;;;20.29;54.47;97139.88;5061167;28;20213;-71
2022/10/24 04:15:34;;;;;;;9.10;2.53;;;;;;;20.24;54.77;97142.41;5070886;28;20174;-72
2022/10/24 04:17:59;;;;;;;9.30;2.70;;;;;;;20.26;54.87;97130.50;5067382;28;20265;-71
2022/10/24 04:20:25;;;;;;;9.23;3.00;;;;;;;20.17;55.22;97136.28;5053367;28;20205;-71
2022/10/24 04:22:50;;;;;;;9.57;2.37;;;;;;;20.16;55.18;97137.34;5062232;28;20190;-72
2022/10/24 04:25:17;;;;;;;9.83;2.33;;;;;;;20.18;54.98;97143.25;5069786;28;20214;-71
2022/10/24 04:27:42;;;;;;;14.80;2.70;;;;;;;20.14;55.15;97128.75;5060723;28;20553;-72
2022/10/24 04:30:09;;;;;;;10.70;2.67;;;;;;;20.18;55.00;97121.97;5061422;28;20452;-71
2022/10/24 04:32:35;;;;;;;8.70;2.30;;;;;;;20.21;54.56;97113.56;5065382;28;20210;-71
2022/10/24 04:35:01;;;;;;;13.63;2.40;;;;;;;20.20;54.73;97101.28;5067913;28;20455;-72
2022/10/24 04:37:26;;;;;;;21.27;2.80;;;;;;;20.20;54.76;97099.44;5066174;28;20182;-72
2022/10/24 04:39:53;;;;;;;11.23;2.63;;;;;;;20.21;54.83;97106.41;5053332;28;20540;-72
2022/10/24 04:42:19;;;;;;;9.93;2.50;;;;;;;20.24;54.73;97115.78;5060490;28;20229;-72
2022/10/24 04:44:45;;;;;;;20.40;2.80;;;;;;;20.09;55.08;97124.91;5053570;28;20817;-71
2022/10/24 04:47:10;;;;;;;9.20;2.77;;;;;;;20.07;55.04;97118.97;5058596;28;20441;-71
2022/10/24 04:49:36;;;;;;;10.93;2.63;;;;;;;20.12;54.96;97128.16;5065049;28;20584;-71
2022/10/24 04:52:01;;;;;;;10.03;2.47;;;;;;;20.10;54.96;97131.00;5067754;28;20209;-71
2022/10/24 04:54:27;;;;;;;15.80;2.50;;;;;;;20.19;54.60;97124.41;5061096;28;20178;-71
2022/10/24 04:56:52;;;;;;;12.43;2.70;;;;;;;20.17;54.50;97123.81;5056985;28;20182;-71
2022/10/24 04:59:17;;;;;;;15.73;3.17;;;;;;;20.16;54.36;97126.72;5059718;28;20273;-71
2022/10/24 05:01:43;;;;;;;15.43;2.93;;;;;;;20.16;54.70;97129.38;5062382;28;20289;-71
2022/10/24 05:04:08;;;;;;;10.60;2.30;;;;;;;20.14;54.56;97131.41;5067490;28;20220;-71
2022/10/24 05:06:34;;;;;;;7.47;2.60;;;;;;;20.15;54.61;97130.38;5061094;28;20265;-70
2022/10/24 05:08:59;;;;;;;9.70;2.20;;;;;;;20.18;54.24;97135.25;5056313;28;20268;-70
2022/10/24 05:11:25;;;;;;;7.90;2.63;;;;;;;20.12;54.06;97122.84;5061198;28;20276;-70
2022/10/24 05:13:50;;;;;;;11.80;2.60;;;;;;;20.10;53.71;97125.69;5067059;28;20244;-70
2022/10/24 05:16:15;;;;;;;15.03;2.87;;;;;;;20.10;53.70;97126.53;5057328;28;20266;-70
2022/10/24 05:18:41;;;;;;;16.43;3.20;;;;;;;20.04;53.62;97135.34;5061924;28;20179;-70
2022/10/24 05:21:06;;;;;;;9.97;2.50;;;;;;;20.10;53.64;97137.16;5054271;28;20203;-70
2022/10/24 05:23:32;;;;;;;12.27;2.43;;;;;;;20.17;53.48;97133.63;5066757;28;20302;-70
2022/10/24 05:25:57;;;;;;;8.23;2.40;;;;;;;20.23;53.60;97140.75;5063230;28;20749;-71
2022/10/24 05:28:23;;;;;;;14.57;2.60;;;;;;;20.08;53.73;97149.84;5062200;28;20282;-71
2022/10/24 05:30:48;;;;;;;14.33;2.10;;;;;;;20.21;53.41;97156.13;5064586;28;20198;-71
2022/10/24 05:33:14;;;;;;;11.80;2.37;;;;;;;20.16;53.65;97156.78;5053891;28;20193;-71
2022/10/24 05:35:40;;;;;;;9.20;2.10;;;;;;;20.21;54.13;97161.44;5070193;28;20198;-71
2022/10/24 05:38:06;;;;;;;6.90;2.17;;;;;;;20.28;53.91;97156.91;5061189;28;20194;-71
2022/10/24 05:40:31;;;;;;;7.40;2.30;;;;;;;20.31;54.15;97159.13;5048517;28;20457;-71
2022/10/24 05:42:56;;;;;;;8.47;2.40;;;;;;;20.18;54.67;97151.22;5051757;28;20198;-71
2022/10/24 05:45:22;;;;;;;9.47;2.53;;;;;;;20.17;54.48;97152.25;5051824;28;20302;-72
2022/10/24 05:47:47;;;;;;;9.47;2.20;;;;;;;20.20;54.36;97151.81;5051961;28;20186;-72
2022/10/24 05:50:13;;;;;;;11.30;2.57;;;;;;;20.20;54.21;97146.50;5046444;28;20678;-71
2022/10/24 05:52:41;;;;;;;7.30;2.50;;;;;;;20.18;54.77;97159.19;5046576;28;20179;-72
2022/10/24 05:55:07;;;;;;;6.87;2.03;;;;;;;20.12;54.89;97170.72;5052175;28;20253;-72
2022/10/24 05:57:33;;;;;;;11.50;2.07;;;;;;;20.13;54.79;97161.72;5049813;28;20440;-72
2022/10/24 05:59:59;;;;;;;7.27;2.40;;;;;;;20.06;55.13;97175.06;5051232;28;20415;-72
2022/10/24 06:02:24;;;;;;;9.53;2.40;;;;;;;20.05;56.64;97208.00;5051777;28;20191;-72
2022/10/24 06:04:50;;;;;;;13.40;2.70;;;;;;;20.09;58.46;97174.63;5051772;28;20576;-74
2022/10/24 06:07:19;;;;;;;9.13;2.70;;;;;;;19.78;59.64;97177.00;5050589;28;20213;-73
2022/10/24 06:09:45;;;;;;;7.90;2.20;;;;;;;19.78;60.19;97160.22;5046933;28;20222;-73
2022/10/24 06:12:10;;;;;;;10.40;2.40;;;;;;;19.84;59.87;97174.53;5045092;28;20441;-72
2022/10/24 06:14:37;;;;;;;5.37;2.30;;;;;;;19.71;60.28;97199.34;5042646;28;20183;-73
2022/10/24 06:17:05;;;;;;;4.63;2.00;;;;;;;19.57;60.96;97201.22;5033776;28;20203;-72
2022/10/24 06:19:31;;;;;;;9.23;2.20;;;;;;;19.42;61.03;97210.25;5015051;28;20445;-74
2022/10/24 06:21:56;;;;;;;10.50;2.37;;;;;;;19.27;61.49;97205.19;5040400;28;20537;-73
2022/10/24 06:24:22;;;;;;;7.93;2.60;;;;;;;19.41;61.32;97207.81;5049279;28;20457;-74
2022/10/24 06:26:47;;;;;;;6.73;2.27;;;;;;;19.42;61.79;97190.84;5048876;28;20271;-73
2022/10/24 06:29:13;;;;;;;7.73;2.30;;;;;;;19.46;61.34;97184.09;5047908;28;20744;-73
2022/10/24 06:31:38;;;;;;;8.13;2.50;;;;;;;19.53;61.29;97186.72;5049746;28;20289;-73
2022/10/24 06:34:04;;;;;;;4.87;1.87;;;;;;;19.55;61.43;97184.66;5046882;28;20232;-73
2022/10/24 06:36:29;;;;;;;8.93;2.30;;;;;;;19.59;61.69;97196.50;5047276;28;20674;-73
2022/10/24 06:38:56;;;;;;;10.70;2.67;;;;;;;19.56;61.97;97207.56;5050423;28;20186;-75
2022/10/24 06:41:22;;;;;;;13.30;3.77;;;;;;;19.59;62.33;97199.16;5051396;28;20230;-74
2022/10/24 06:43:48;;;;;;;6.77;2.63;;;;;;;19.64;62.21;97204.69;5047866;28;20936;-73
2022/10/24 06:46:15;;;;;;;9.67;2.40;;;;;;;19.62;61.89;97199.56;5034705;28;20211;-73
2022/10/24 06:48:40;;;;;;;10.13;2.00;;;;;;;19.61;61.95;97205.91;5036110;28;20183;-73
2022/10/24 06:51:06;;;;;;;9.20;2.40;;;;;;;19.59;62.24;97199.16;5034003;28;20458;-73
2022/10/24 06:53:32;;;;;;;11.27;2.67;;;;;;;19.52;61.92;97195.72;5038372;28;20248;-74
2022/10/24 06:56:01;;;;;;;9.47;2.10;;;;;;;19.55;61.99;97203.25;5042042;28;20219;-73
2022/10/24 06:58:33;;;;;;;10.20;2.60;;;;;;;19.57;62.19;97214.50;5036907;28;20188;-73
2022/10/24 07:00:59;;;;;;;8.70;2.10;;;;;;;19.61;62.30;97226.34;5040271;28;20533;-73
2022/10/24 07:03:24;;;;;;;11.10;2.53;;;;;;;19.58;62.71;97240.91;5036289;28;20487;-74
2022/10/24 07:05:50;;;;;;;10.20;2.80;;;;;;;19.57;63.88;97244.56;5041186;28;20698;-74
2022/10/24 07:08:15;;;;;;;14.00;2.57;;;;;;;19.57;64.33;97235.78;5040133;28;20233;-74
2022/10/24 07:10:41;;;;;;;10.30;3.10;;;;;;;19.52;65.02;97240.91;5040756;28;20674;-74
2022/10/24 07:13:06;;;;;;;6.93;2.37;;;;;;;19.51;65.33;97261.34;5043410;28;20190;-73
2022/10/24 07:15:32;;;;;;;8.00;3.07;;;;;;;19.48;64.94;97254.59;5038823;28;20187;-74
2022/10/24 07:17:57;;;;;;;12.80;3.27;;;;;;;19.45;65.41;97265.66;5040142;28;20187;-75
2022/10/24 07:20:23;;;;;;;15.13;2.97;;;;;;;19.37;65.72;97252.59;5038823;28;20299;-73
2022/10/24 07:22:48;;;;;;;13.50;3.03;;;;;;;19.31;66.00;97245.44;5049417;28;20546;-73
2022/10/24 07:25:14;;;;;;;13.27;3.00;;;;;;;19.36;65.94;97237.66;5049241;28;20575;-73
2022/10/24 07:27:40;;;;;;;7.97;2.80;;;;;;;19.38;66.23;97240.94;5028167;28;20176;-73
2022/10/24 07:30:06;;;;;;;8.50;2.73;;;;;;;19.35;65.80;97238.69;5045909;28;20210;-73
2022/10/24 07:32:32;;;;;;;15.13;3.03;;;;;;;19.41;65.94;97239.69;5050512;28;20414;-73
2022/10/24 07:34:57;;;;;;;9.20;2.63;;;;;;;19.41;65.66;97243.16;5050497;28;20440;-73
2022/10/24 07:37:23;;;;;;;13.07;3.13;;;;;;;19.43;65.21;97254.41;5049914;28;20197;-73
2022/10/24 07:39:48;;;;;;;6.53;2.73;;;;;;;19.39;65.40;97257.69;5051360;28;20186;-73
2022/10/24 07:42:14;;;;;;;10.90;2.80;;;;;;;19.44;65.66;97268.53;5051116;28;20218;-74
2022/10/24 07:44:39;;;;;;;7.37;2.73;;;;;;;19.46;66.32;97261.97;5050288;28;20260;-74
2022/10/24 07:47:07;;;;;;;9.30;3.07;;;;;;;19.46;66.53;97261.16;5049180;28;20194;-72
2022/10/24 07:49:33;;;;;;;8.67;3.10;;;;;;;19.49;66.35;97242.97;5050175;28;20191;-73
2022/10/24 07:51:59;;;;;;;4.80;2.57;;;;;;;19.51;65.97;97263.19;5042648;28;20920;-74
2022/10/24 07:54:25;;;;;;;11.43;2.53;;;;;;;19.46;65.57;97279.78;5050076;28;20492;-73
2022/10/24 07:56:51;;;;;;;10.97;2.50;;;;;;;19.44;65.42;97277.28;5048330;28;20190;-73
2022/10/24 07:59:16;;;;;;;15.17;3.03;;;;;;;19.40;65.03;97285.91;5049903;28;20901;-73
2022/10/24 08:01:42;;;;;;;6.57;1.90;;;;;;;19.33;64.58;97281.41;5050368;28;20289;-73
2022/10/24 08:04:08;;;;;;;5.47;2.30;;;;;;;19.13;64.57;97281.44;5056333;28;20630;-73
2022/10/24 08:06:34;;;;;;;11.93;2.43;;;;;;;19.18;64.44;97273.66;5044974;28;20210;-73
2022/10/24 08:09:00;;;;;;;8.10;1.97;;;;;;;19.08;64.36;97288.38;5050343;28;20501;-73
2022/10/24 08:11:26;;;;;;;11.47;2.77;;;;;;;19.02;64.21;97290.03;5048762;28;20652;-73
2022/10/24 08:13:53;;;;;;;5.87;2.10;;;;;;;19.05;64.26;97271.00;5048936;28;20187;-73
2022/10/24 08:16:21;;;;;;;5.80;2.20;;;;;;;18.65;65.21;97200.13;5048677;28;20479;-73
2022/10/24 08:18:47;;;;;;;5.47;2.57;;;;;;;18.76;64.51;97158.88;5048793;28;20441;-72
2022/10/24 08:21:15;;;;;;;6.60;2.27;;;;;;;18.90;64.36;97178.25;5040648;28;20973;-72
2022/10/24 08:23:43;;;;;;;8.33;2.80;;;;;;;18.98;64.00;97231.16;5050406;28;20453;-73
2022/10/24 08:26:11;;;;;;;7.03;2.53;;;;;;;19.08;64.28;97222.78;5045711;28;20457;-73
2022/10/24 08:28:37;;;;;;;11.00;1.97;;;;;;;19.11;64.42;97225.03;5049025;28;20426;-72
2022/10/24 08:31:09;;;;;;;7.90;2.10;;;;;;;19.13;64.19;97230.97;5046531;28;20453;-73
2022/10/24 08:33:35;;;;;;;6.00;2.07;;;;;;;19.20;63.95;97233.63;5051297;28;20178;-72
2022/10/24 08:36:04;;;;;;;4.80;2.00;;;;;;;19.23;63.71;97232.38;5053572;28;20438;-72
2022/10/24 08:38:30;;;;;;;8.17;2.53;;;;;;;19.31;63.81;97230.31;5052905;28;20533;-72
2022/10/24 08:40:56;;;;;;;9.33;1.97;;;;;;;19.33;63.72;97228.28;5053079;28;20548;-72
2022/10/24 08:43:22;;;;;;;6.80;2.07;;;;;;;19.35;63.75;97238.69;5052364;28;20655;-74
2022/10/24 08:46:12;;;;;;;10.10;3.40;;;;;;;19.38;63.76;97245.44;5052348;28;20463;-73
2022/10/24 08:48:48;;;;;;;8.70;2.43;;;;;;;19.41;63.90;97245.81;5044502;28;20187;-73
2022/10/24 08:51:47;;;;;;;9.07;2.87;;;;;;;19.35;64.04;97244.00;5045175;28;20964;-73
2022/10/24 08:54:17;;;;;;;12.60;1.80;;;;;;;19.35;64.17;97236.03;5049010;28;20437;-73
2022/10/24 08:56:43;;;;;;;6.80;1.90;;;;;;;19.41;64.00;97234.38;5051121;28;20789;-73
2022/10/24 08:59:10;;;;;;;5.40;1.80;;;;;;;19.36;64.12;97237.66;5051244;28;20425;-73
2022/10/24 09:01:49;;;;;;;9.30;2.53;;;;;;;19.41;64.15;97223.75;5051700;28;20229;-74
2022/10/24 09:04:18;;;;;;;11.03;2.20;;;;;;;19.36;63.82;97237.66;5052970;28;20429;-73
2022/10/24 09:06:44;;;;;;;9.67;1.90;;;;;;;19.38;63.88;97240.09;5051112;28;20424;-73
2022/10/24 09:09:18;;;;;;;5.50;1.90;;;;;;;19.28;63.68;97243.22;5058466;28;20946;-73
2022/10/24 09:11:51;;;;;;;5.00;2.23;;;;;;;19.33;63.97;97244.22;5052458;28;20499;-74
2022/10/24 09:14:22;;;;;;;6.03;2.10;;;;;;;19.16;64.62;97257.09;5051781;28;20479;-72
2022/10/24 09:16:56;;;;;;;6.67;2.00;;;;;;;19.19;64.74;97274.50;5051912;28;20425;-72
2022/10/24 09:19:24;;;;;;;13.43;2.53;;;;;;;19.06;65.16;97280.59;5052596;28;20446;-73
2022/10/24 09:21:51;;;;;;;8.17;2.17;;;;;;;19.16;64.94;97291.63;5043879;28;20456;-73
2022/10/24 09:24:27;;;;;;;7.17;2.13;;;;;;;19.09;65.03;97293.47;5052108;28;20429;-73
2022/10/24 09:26:52;;;;;;;3.90;1.70;;;;;;;19.14;64.93;97274.28;5050655;28;20857;-73
2022/10/24 09:29:18;;;;;;;12.30;2.33;;;;;;;19.11;64.65;97275.50;5050168;28;20421;-73
2022/10/24 09:31:43;;;;;;;10.17;2.40;;;;;;;19.10;65.45;97278.34;5052980;28;20241;-73
2022/10/24 09:34:10;;;;;;;9.80;2.10;;;;;;;19.10;65.44;97287.16;5050855;28;20248;-74
2022/10/24 09:36:37;;;;;;;10.63;2.53;;;;;;;19.18;65.04;97294.09;5034047;28;20753;-74
2022/10/24 09:39:30;;;;;;;7.03;2.20;;;;;;;19.22;65.00;97282.03;5052203;28;20418;-73
2022/10/24 09:41:57;;;;;;;6.70;2.50;;;;;;;19.21;65.18;97282.25;5047214;28;20518;-73
2022/10/24 09:44:30;;;;;;;5.03;2.13;;;;;;;19.25;64.98;97283.47;5049418;28;20455;-73
2022/10/24 09:46:56;;;;;;;14.00;2.30;;;;;;;19.21;65.14;97284.91;5051495;28;20422;-73
2022/10/24 09:49:24;;;;;;;10.00;2.40;;;;;;;19.19;65.13;97283.25;5033805;28;20445;-73
2022/10/24 09:52:18;;;;;;;4.83;2.03;;;;;;;19.21;65.34;97285.72;5027752;28;20226;-74
2022/10/24 09:54:44;;;;;;;5.97;1.70;;;;;;;19.25;65.07;97288.78;5051970;28;20432;-73
2022/10/24 09:57:09;;;;;;;8.93;2.47;;;;;;;19.26;65.20;97287.75;5033028;28;20517;-73
2022/10/24 09:59:34;;;;;;;4.87;2.13;;;;;;;19.23;65.52;97291.63;5051573;28;20425;-73
2022/10/24 10:02:09;;;;;;;13.40;2.70;;;;;;;19.31;65.54;97295.91;5058628;28;20211;-73
2022/10/24 10:04:35;;;;;;;10.90;2.33;;;;;;;19.33;65.70;97283.25;5046323;28;20260;-74
2022/10/24 10:07:08;;;;;;;5.77;2.37;;;;;;;19.36;65.40;97289.97;5049763;28;20521;-74
2022/10/24 10:09:36;;;;;;;4.60;2.37;;;;;;;19.33;65.39;97286.75;5045448;28;20425;-73
2022/10/24 10:12:01;;;;;;;12.17;2.50;;;;;;;19.38;65.46;97290.59;5047451;28;20437;-74
2022/10/24 10:14:28;;;;;;;7.50;2.20;;;;;;;19.44;65.43;97287.94;5050857;28;20793;-74
2022/10/24 10:17:04;;;;;;;12.00;2.30;;;;;;;19.49;65.59;97285.47;5049467;28;20221;-74
2022/10/24 10:19:35;;;;;;;7.13;2.37;;;;;;;19.54;65.51;97289.34;5042213;28;20471;-73
2022/10/24 10:22:04;;;;;;;4.03;2.07;;;;;;;19.47;64.56;97281.38;5042132;28;21029;-73
2022/10/24 10:24:39;;;;;;;6.27;2.37;;;;;;;19.57;63.88;97286.28;5051443;28;21201;-74
2022/10/24 10:27:34;;;;;;;10.70;1.70;;;;;;;19.62;62.95;97287.28;5047336;28;20429;-72
2022/10/24 10:30:14;;;;;;;4.23;1.80;;;;;;;19.55;62.68;97273.19;5049795;28;20437;-74
2022/10/24 10:32:58;;;;;;;5.00;1.93;;;;;;;19.65;62.60;97268.25;5049431;28;20421;-73
2022/10/24 10:35:31;;;;;;;12.53;1.90;;;;;;;19.44;61.72;97274.63;5050617;28;20932;-73
2022/10/24 10:38:23;;;;;;;6.37;1.80;;;;;;;19.41;61.68;97275.03;5047472;28;20963;-73
2022/10/24 10:40:55;;;;;;;11.50;1.53;;;;;;;19.52;61.25;97294.06;5046322;28;20441;-74
2022/10/24 10:43:41;;;;;;;6.67;1.73;;;;;;;19.62;61.03;97281.16;5035585;28;20438;-73
2022/10/24 10:46:23;;;;;;;7.63;2.10;;;;;;;19.46;61.36;97280.56;5032389;28;20457;-73
2022/10/24 10:48:57;;;;;;;4.60;1.63;;;;;;;19.52;60.81;97297.53;5051377;28;20426;-73
2022/10/24 10:51:37;;;;;;;6.93;1.87;;;;;;;19.56;60.71;97295.25;5042638;28;20452;-72
2022/10/24 10:54:29;;;;;;;3.87;1.60;;;;;;;19.42;60.16;97310.44;5051147;28;20422;-72
2022/10/24 10:57:20;;;;;;;4.87;1.60;;;;;;;19.34;60.46;97312.25;5044982;28;20433;-73
2022/10/24 11:00:07;;;;;;;6.13;1.70;;;;;;;19.17;60.28;97303.91;5047571;28;20452;-73
2022/10/24 11:03:10;;;;;;;3.90;1.27;;;;;;;19.33;60.27;97307.16;5043402;28;20924;-73
2022/10/24 11:05:48;;;;;;;3.30;1.57;;;;;;;19.42;59.55;97316.53;5042296;28;20579;-74
2022/10/24 11:08:25;;;;;;;4.63;1.63;;;;;;;19.46;59.29;97317.78;5041699;28;20433;-73
2022/10/24 11:10:58;;;;;;;7.70;1.57;;;;;;;19.54;59.12;97310.59;5050431;28;20799;-72
2022/10/24 11:13:28;;;;;;;9.10;1.57;;;;;;;19.47;59.00;97316.75;5057964;28;20432;-72
2022/10/24 11:15:58;;;;;;;3.87;1.40;;;;;;;19.52;58.78;97325.97;5049522;28;20469;-74
2022/10/24 11:18:29;;;;;;;8.40;1.30;;;;;;;19.48;59.18;97320.22;5048463;28;20461;-73
2022/10/24 11:21:05;;;;;;;5.37;1.40;;;;;;;19.39;59.28;97321.47;5043103;28;20454;-73
2022/10/24 11:23:43;;;;;;;2.00;1.30;;;;;;;19.54;59.04;97324.72;5046385;28;20428;-73
2022/10/24 11:26:27;;;;;;;6.30;1.27;;;;;;;19.38;59.04;97315.34;5047889;28;20472;-73
2022/10/24 11:28:58;;;;;;;5.73;1.40;;;;;;;19.42;59.17;97307.78;5050664;28;20417;-73
2022/10/24 11:31:38;;;;;;;1.93;1.03;;;;;;;19.34;59.08;97314.09;5049669;28;20453;-72
2022/10/24 11:34:24;;;;;;;3.97;1.30;;;;;;;19.33;59.44;97312.47;5049235;28;20421;-73
2022/10/24 11:37:02;;;;;;;2.70;1.23;;;;;;;19.34;59.43;97292.84;5044680;28;20421;-73
2022/10/24 11:39:43;;;;;;;1.97;1.10;;;;;;;19.42;59.55;97299.78;5032523;28;20778;-74
2022/10/24 11:42:23;;;;;;;3.30;1.50;;;;;;;19.45;59.18;97286.91;5051189;28;20521;-73